Terminal Aerodrome Forecast
Issued by NWS

Home | Current Version | Previous Version | Text Only | Print | Product List | Glossary On
Versions: 1 2 3 4 5 6 7 8 9 10 11 12 13 14 15 16 17 18 19 20
000
FTUS43 KPAH 200520
TAFCGI
TAF
KCGI 200520Z 2006/2106 03006KT P6SM BKN250
     FM201100 05009KT P6SM -SHRA SCT060 BKN150
     FM201600 06007KT 5SM -SHRA BR SCT025 OVC050
     FM202000 02008KT 5SM BR BKN010 OVC020
     FM210000 36007KT 4SM BR OVC009=

USA.gov is the U.S. government's official web portal to all federal, state and local government web resources and services.